createdAt,value
2019-05-28T00:02:01.485Z,99351.32
2019-05-28T00:05:07.579Z,99352.92
2019-05-28T00:08:13.221Z,99359.68
2019-05-28T00:11:18.918Z,99348.45
2019-05-28T00:14:24.606Z,99346.14
2019-05-28T00:17:30.326Z,99357.79
2019-05-28T00:20:36.039Z,99355.40
2019-05-28T00:23:41.793Z,99338.43
2019-05-28T00:26:47.545Z,99327.20
2019-05-28T00:29:53.288Z,99319.88
2019-05-28T00:32:58.961Z,99317.07
2019-05-28T00:36:05.212Z,99310.14
2019-05-28T00:39:10.860Z,99304.24
2019-05-28T00:42:16.598Z,99314.49
2019-05-28T00:45:25.119Z,99325.61
2019-05-28T00:48:30.779Z,99328.97
2019-05-28T00:51:37.245Z,99338.23
2019-05-28T00:54:44.375Z,99329.08
2019-05-28T00:57:52.016Z,99322.43
2019-05-28T01:00:58.074Z,99324.97
2019-05-28T01:04:03.885Z,99316.91
2019-05-28T01:07:09.548Z,99298.34
2019-05-28T01:10:15.732Z,99291.31
2019-05-28T01:13:21.540Z,99300.44
2019-05-28T01:16:28.099Z,99303.09
2019-05-28T01:19:34.226Z,99305.80
2019-05-28T01:22:39.899Z,99299.13
2019-05-28T01:25:45.572Z,99294.45
2019-05-28T01:28:51.216Z,99294.02
2019-05-28T01:31:56.899Z,99290.89
2019-05-28T01:35:02.569Z,99283.71
2019-05-28T01:38:08.718Z,99290.87
2019-05-28T01:41:14.686Z,99284.78
2019-05-28T01:44:20.328Z,99281.22
2019-05-28T01:47:26.046Z,99284.72
2019-05-28T01:50:31.656Z,99283.45
2019-05-28T01:53:37.415Z,99275.27
2019-05-28T01:56:43.113Z,99272.52
2019-05-28T01:59:48.795Z,99272.59
2019-05-28T02:02:54.553Z,99272.31
2019-05-28T02:06:00.206Z,99277.87
2019-05-28T02:09:07.739Z,99275.14
2019-05-28T02:12:13.391Z,99268.91
2019-05-28T02:15:22.071Z,99284.08
2019-05-28T02:18:27.870Z,99278.83
2019-05-28T02:21:34.844Z,99278.63
2019-05-28T02:24:41.023Z,99285.18
2019-05-28T02:27:46.854Z,99294.97
2019-05-28T02:30:58.310Z,99301.81
2019-05-28T02:34:04.101Z,99297.94
2019-05-28T02:37:09.763Z,99298.14
2019-05-28T02:40:17.046Z,99291.32
2019-05-28T02:43:26.096Z,99290.53
2019-05-28T02:46:32.303Z,99291.23
2019-05-28T02:49:38.403Z,99307.58
2019-05-28T02:52:45.845Z,99304.25
2019-05-28T02:55:52.078Z,99311.44
2019-05-28T02:59:00.426Z,99309.88
2019-05-28T03:02:06.281Z,99307.94
2019-05-28T03:05:33.405Z,99296.34
2019-05-28T03:08:40.132Z,99299.86
2019-05-28T03:11:46.023Z,99298.80
2019-05-28T03:14:52.163Z,99297.16
2019-05-28T03:17:58.192Z,99306.50
2019-05-28T03:21:04.398Z,99308.13
2019-05-28T03:24:12.931Z,99301.71
2019-05-28T03:27:19.618Z,99296.45
2019-05-28T03:30:25.369Z,99300.39
2019-05-28T03:33:34.135Z,99304.27
2019-05-28T03:36:41.294Z,99301.30
2019-05-28T03:39:50.576Z,99308.18
2019-05-28T03:42:56.298Z,99306.66
2019-05-28T03:46:02.373Z,99304.82
2019-05-28T03:49:08.072Z,99304.44
2019-05-28T03:52:13.933Z,99292.20
2019-05-28T03:55:19.648Z,99300.41
2019-05-28T03:58:25.422Z,99302.45
2019-05-28T04:01:31.119Z,99293.81
2019-05-28T04:04:38.426Z,99288.51
2019-05-28T04:07:44.164Z,99294.59
2019-05-28T04:10:49.947Z,99296.83
2019-05-28T04:13:55.700Z,99298.54
2019-05-28T04:17:01.361Z,99297.56
2019-05-28T04:20:07.197Z,99297.65
2019-05-28T04:23:16.949Z,99303.75
2019-05-28T04:26:22.899Z,99298.95
2019-05-28T04:29:28.881Z,99299.42
2019-05-28T04:32:40.723Z,99304.82
2019-05-28T04:35:42.001Z,99308.20
2019-05-28T04:38:48.691Z,99308.69
2019-05-28T04:41:54.524Z,99307.08
2019-05-28T04:45:00.274Z,99309.86
2019-05-28T04:48:06.186Z,99309.13
2019-05-28T04:51:11.883Z,99308.81
2019-05-28T04:54:17.605Z,99309.36
2019-05-28T04:57:23.279Z,99300.87
2019-05-28T05:00:29.049Z,99302.91
2019-05-28T05:03:34.794Z,99308.25
2019-05-28T05:06:40.593Z,99315.39
2019-05-28T05:09:46.245Z,99313.88
2019-05-28T05:12:51.972Z,99317.36
2019-05-28T05:15:57.973Z,99313.11
2019-05-28T05:19:14.439Z,99311.23
2019-05-28T05:22:27.658Z,99308.13
2019-05-28T05:25:33.647Z,99305.45
2019-05-28T05:28:40.335Z,99311.14
2019-05-28T05:31:45.996Z,99302.11
2019-05-28T05:34:51.740Z,99309.67
2019-05-28T05:37:57.567Z,99310.65
2019-05-28T05:41:03.284Z,99308.90
2019-05-28T05:44:09.099Z,99314.61
2019-05-28T05:47:14.974Z,99319.48
2019-05-28T05:50:21.020Z,99310.88
2019-05-28T05:53:29.023Z,99313.09
2019-05-28T05:56:35.084Z,99314.83
2019-05-28T05:59:40.845Z,99315.64
2019-05-28T06:02:56.993Z,99320.33
2019-05-28T06:06:02.699Z,99315.39
2019-05-28T06:09:08.822Z,99320.15
2019-05-28T06:12:14.590Z,99310.02
2019-05-28T06:15:20.271Z,99306.95
2019-05-28T06:18:26.040Z,99300.69
2019-05-28T06:21:31.722Z,99293.84
2019-05-28T06:24:38.548Z,99298.61
2019-05-28T06:27:44.246Z,99290.74
2019-05-28T06:30:50.056Z,99288.77
2019-05-28T06:33:57.455Z,99291.43
2019-05-28T06:37:03.270Z,99282.03
2019-05-28T06:40:10.685Z,99277.23
2019-05-28T06:43:16.522Z,99276.08
2019-05-28T06:46:31.959Z,99266.44
2019-05-28T06:49:41.760Z,99268.66
2019-05-28T06:52:51.024Z,99266.81
2019-05-28T06:55:56.729Z,99267.00
2019-05-28T06:59:02.519Z,99263.52
2019-05-28T07:02:08.196Z,99265.66
2019-05-28T07:05:14.425Z,99260.76
2019-05-28T07:08:20.103Z,99262.20
2019-05-28T07:11:25.840Z,99258.12
2019-05-28T07:14:31.501Z,99243.95
2019-05-28T07:17:37.452Z,99241.34
2019-05-28T07:20:43.212Z,99238.25
2019-05-28T07:23:49.031Z,99235.78
2019-05-28T07:26:54.830Z,99228.19
2019-05-28T07:30:00.615Z,99233.57
2019-05-28T07:33:06.395Z,99229.91
2019-05-28T07:36:12.200Z,99226.72
2019-05-28T07:39:20.617Z,99220.03
2019-05-28T07:42:32.701Z,99217.28
2019-05-28T07:45:33.666Z,99216.69
2019-05-28T07:48:42.609Z,99219.02
2019-05-28T07:51:49.074Z,99217.79
2019-05-28T07:54:55.124Z,99214.03
2019-05-28T07:58:01.051Z,99209.06
2019-05-28T08:01:06.792Z,99216.05
2019-05-28T08:04:12.661Z,99214.84
2019-05-28T08:07:18.297Z,99219.70
2019-05-28T08:10:24.137Z,99214.98
2019-05-28T08:13:40.175Z,99217.95
2019-05-28T08:16:51.895Z,99209.75
2019-05-28T08:19:47.697Z,99210.98
2019-05-28T08:22:53.443Z,99208.56
2019-05-28T08:26:01.900Z,99198.45
2019-05-28T08:29:07.985Z,99188.11
2019-05-28T08:32:13.832Z,99194.42
2019-05-28T08:35:19.552Z,99202.26
2019-05-28T08:38:25.818Z,99192.63
2019-05-28T08:41:31.729Z,99178.42
2019-05-28T08:44:37.445Z,99176.80
2019-05-28T08:47:43.202Z,99177.89
2019-05-28T08:50:59.607Z,99166.78
2019-05-28T08:54:05.761Z,99163.47
2019-05-28T08:57:11.427Z,99168.89
2019-05-28T09:00:35.718Z,99161.42
2019-05-28T09:03:42.408Z,99160.16
2019-05-28T09:06:50.059Z,99156.56
2019-05-28T09:09:55.793Z,99158.14
2019-05-28T09:13:01.441Z,99149.31
2019-05-28T09:16:07.451Z,99141.03
2019-05-28T09:19:13.325Z,99137.80
2019-05-28T09:22:25.987Z,99135.31
2019-05-28T09:25:26.871Z,99118.14
2019-05-28T09:28:32.544Z,99115.19
2019-05-28T09:31:38.422Z,99110.42
2019-05-28T09:34:44.076Z,99106.26
2019-05-28T09:37:51.477Z,99101.30
2019-05-28T09:41:00.345Z,99098.08
2019-05-28T09:44:06.422Z,99096.45
2019-05-28T09:47:12.176Z,99094.23
2019-05-28T09:50:29.814Z,99078.67
2019-05-28T09:53:26.190Z,99079.53
2019-05-28T09:56:32.890Z,99067.80
2019-05-28T09:59:41.777Z,99062.66
2019-05-28T10:02:47.159Z,99056.69
2019-05-28T10:06:02.039Z,99057.78
2019-05-28T10:09:00.246Z,99056.69
2019-05-28T10:12:06.211Z,99046.75
2019-05-28T10:15:12.424Z,99036.69
2019-05-28T10:18:18.309Z,99041.19
2019-05-28T10:21:24.079Z,99032.62
2019-05-28T10:24:32.891Z,99027.88
2019-05-28T10:27:38.713Z,99017.02
2019-05-28T10:30:44.544Z,99010.57
2019-05-28T10:33:50.349Z,99008.33
2019-05-28T10:36:56.223Z,98992.95
2019-05-28T10:40:02.087Z,98993.11
2019-05-28T10:43:07.771Z,98982.53
2019-05-28T10:46:15.465Z,98975.44
2019-05-28T10:49:21.139Z,98968.02
2019-05-28T10:52:26.995Z,98965.77
2019-05-28T10:55:34.083Z,98964.80
2019-05-28T10:58:39.812Z,98958.50
2019-05-28T11:01:45.539Z,98941.55
2019-05-28T11:04:51.368Z,98942.76
2019-05-28T11:07:57.019Z,98935.09
2019-05-28T11:11:02.856Z,98924.75
2019-05-28T11:14:08.676Z,98920.32
2019-05-28T11:17:14.449Z,98912.12
2019-05-28T11:20:22.266Z,98901.72
2019-05-28T11:23:28.068Z,98896.01
2019-05-28T11:26:33.836Z,98881.03
2019-05-28T11:29:39.638Z,98876.27
2019-05-28T11:32:46.575Z,98864.78
2019-05-28T11:35:52.522Z,98850.98
2019-05-28T11:38:58.219Z,98847.42
2019-05-28T11:42:03.992Z,98841.02
2019-05-28T11:45:10.688Z,98828.94
2019-05-28T11:48:16.704Z,98827.37
2019-05-28T11:51:22.464Z,98817.03
2019-05-28T11:54:28.585Z,98817.46
2019-05-28T11:57:34.238Z,98811.72
2019-05-28T12:00:40.167Z,98796.66
2019-05-28T12:03:48.879Z,98786.38
2019-05-28T12:06:55.651Z,98774.95
2019-05-28T12:10:01.318Z,98760.95
2019-05-28T12:13:10.929Z,98766.62
2019-05-28T12:16:17.269Z,98765.63
2019-05-28T12:19:24.333Z,98751.43
2019-05-28T12:22:30.242Z,98744.34
2019-05-28T12:25:36.185Z,98741.55
2019-05-28T12:28:42.124Z,98733.02
2019-05-28T12:31:50.666Z,98736.27
2019-05-28T12:34:56.370Z,98732.80
2019-05-28T12:38:02.294Z,98731.05
2019-05-28T12:41:07.986Z,98725.18
2019-05-28T12:44:16.833Z,98716.64
2019-05-28T12:47:21.050Z,98714.78
2019-05-28T12:50:27.059Z,98704.80
2019-05-28T12:53:49.234Z,98703.76
2019-05-28T12:56:40.532Z,98694.95
2019-05-28T12:59:46.268Z,98695.48
2019-05-28T13:02:51.995Z,98693.70
2019-05-28T13:05:57.679Z,98690.95
2019-05-28T13:09:03.917Z,98686.89
2019-05-28T13:12:09.954Z,98681.45
2019-05-28T13:15:16.299Z,98669.78
2019-05-28T13:18:21.962Z,98670.23
2019-05-28T13:21:27.730Z,98664.34
2019-05-28T13:24:33.518Z,98660.84
2019-05-28T13:27:39.305Z,98653.51
2019-05-28T13:30:45.007Z,98648.56
2019-05-28T13:33:50.681Z,98649.83
2019-05-28T13:36:56.492Z,98646.13
2019-05-28T13:40:02.281Z,98633.70
2019-05-28T13:43:08.076Z,98639.66
2019-05-28T13:46:13.796Z,98632.63
2019-05-28T13:49:19.550Z,98627.95
2019-05-28T13:52:25.210Z,98627.17
2019-05-28T13:55:31.219Z,98619.88
2019-05-28T13:58:37.096Z,98616.60
2019-05-28T14:01:42.751Z,98608.38
2019-05-28T14:04:48.486Z,98602.94
2019-05-28T14:07:54.226Z,98604.20
2019-05-28T14:11:00.148Z,98596.55
2019-05-28T14:14:07.531Z,98599.91
2019-05-28T14:17:14.261Z,98598.87
2019-05-28T14:20:20.337Z,98592.59
2019-05-28T14:23:26.102Z,98588.39
2019-05-28T14:26:31.886Z,98584.70
2019-05-28T14:29:37.551Z,98580.55
2019-05-28T14:32:43.320Z,98578.77
2019-05-28T14:35:49.105Z,98574.13
2019-05-28T14:39:03.143Z,98573.73
2019-05-28T14:42:02.277Z,98574.84
2019-05-28T14:45:08.383Z,98566.33
2019-05-28T14:48:14.176Z,98558.28
2019-05-28T14:51:19.864Z,98557.23
2019-05-28T14:54:28.118Z,98557.03
2019-05-28T14:57:33.889Z,98559.05
2019-05-28T15:00:42.012Z,98551.27
2019-05-28T15:03:47.876Z,98540.20
2019-05-28T15:06:57.095Z,98542.95
2019-05-28T15:10:01.173Z,98546.66
2019-05-28T15:13:08.114Z,98547.63
2019-05-28T15:16:13.969Z,98548.00
2019-05-28T15:19:19.684Z,98543.08
2019-05-28T15:22:25.452Z,98536.63
2019-05-28T15:25:31.137Z,98535.28
2019-05-28T15:28:36.786Z,98535.20
2019-05-28T15:31:42.552Z,98527.77
2019-05-28T15:34:48.327Z,98531.34
2019-05-28T15:37:54.137Z,98523.37
2019-05-28T15:41:01.719Z,98519.38
2019-05-28T15:44:07.442Z,98519.84
2019-05-28T15:47:14.452Z,98521.89
2019-05-28T15:50:21.098Z,98523.77
2019-05-28T15:53:26.743Z,98524.09
2019-05-28T15:56:32.415Z,98520.92
2019-05-28T15:59:38.075Z,98521.86
2019-05-28T16:02:43.822Z,98518.66
2019-05-28T16:05:49.712Z,98523.94
2019-05-28T16:08:55.367Z,98519.59
2019-05-28T16:12:01.224Z,98520.58
2019-05-28T16:15:07.509Z,98523.80
2019-05-28T16:18:13.216Z,98527.91
2019-05-28T16:21:20.035Z,98533.31
2019-05-28T16:24:25.745Z,98533.76
2019-05-28T16:27:31.470Z,98532.52
2019-05-28T16:30:37.264Z,98541.18
2019-05-28T16:33:42.942Z,98529.23
2019-05-28T16:36:48.699Z,98534.48
2019-05-28T16:39:54.415Z,98533.50
2019-05-28T16:43:00.422Z,98531.06
2019-05-28T16:46:06.320Z,98531.20
2019-05-28T16:49:12.210Z,98533.55
2019-05-28T16:52:17.975Z,98529.60
2019-05-28T16:55:24.017Z,98528.16
2019-05-28T16:58:29.691Z,98524.64
2019-05-28T17:01:36.539Z,98526.38
2019-05-28T17:04:42.272Z,98526.38
2019-05-28T17:07:47.992Z,98528.70
2019-05-28T17:10:53.688Z,98525.62
2019-05-28T17:14:00.775Z,98526.50
2019-05-28T17:17:06.801Z,98524.75
2019-05-28T17:20:12.989Z,98531.54
2019-05-28T17:23:19.097Z,98536.08
2019-05-28T17:26:24.775Z,98538.97
2019-05-28T17:29:30.462Z,98543.34
2019-05-28T17:32:36.181Z,98543.50
2019-05-28T17:35:41.858Z,98544.16
2019-05-28T17:38:47.611Z,98541.62
2019-05-28T17:41:53.330Z,98550.05
2019-05-28T17:44:59.020Z,98550.66
2019-05-28T17:48:04.893Z,98559.69
2019-05-28T17:51:10.621Z,98559.25
2019-05-28T17:54:16.402Z,98554.47
2019-05-28T17:57:22.144Z,98557.14
2019-05-28T18:00:27.803Z,98560.49
2019-05-28T18:03:35.361Z,98565.05
2019-05-28T18:06:41.445Z,98562.44
2019-05-28T18:09:47.270Z,98562.47
2019-05-28T18:12:54.163Z,98570.38
2019-05-28T18:15:59.983Z,98570.65
2019-05-28T18:19:05.835Z,98577.69
2019-05-28T18:22:11.669Z,98585.69
2019-05-28T18:25:20.735Z,98594.29
2019-05-28T18:28:27.108Z,98588.83
2019-05-28T18:31:35.624Z,98599.28
2019-05-28T18:34:44.442Z,98607.94
2019-05-28T18:37:50.101Z,98608.23
2019-05-28T18:40:58.096Z,98608.29
2019-05-28T18:44:05.158Z,98616.56
2019-05-28T18:47:11.211Z,98617.46
2019-05-28T18:50:17.344Z,98621.59
2019-05-28T18:53:23.183Z,98624.36
2019-05-28T18:56:28.959Z,98627.38
2019-05-28T18:59:35.549Z,98625.48
2019-05-28T19:02:41.413Z,98630.58
2019-05-28T19:05:47.200Z,98632.91
2019-05-28T19:08:56.733Z,98634.52
2019-05-28T19:12:02.902Z,98639.05
2019-05-28T19:15:11.479Z,98642.55
2019-05-28T19:18:21.604Z,98641.14
2019-05-28T19:21:29.686Z,98649.95
2019-05-28T19:24:36.691Z,98650.72
2019-05-28T19:27:53.372Z,98656.33
2019-05-28T19:31:01.164Z,98670.00
2019-05-28T19:34:08.908Z,98676.67
2019-05-28T19:37:14.811Z,98689.05
2019-05-28T19:40:31.201Z,98687.32
2019-05-28T19:43:36.862Z,98682.80
2019-05-28T19:46:44.218Z,98693.50
2019-05-28T19:49:50.543Z,98708.50
2019-05-28T19:53:02.217Z,98709.81
2019-05-28T19:56:10.436Z,98704.92
2019-05-28T19:59:16.249Z,98701.34
2019-05-28T20:02:21.952Z,98705.89
2019-05-28T20:05:27.914Z,98715.76
2019-05-28T20:08:44.072Z,98725.08
2019-05-28T20:11:49.760Z,98725.51
2019-05-28T20:14:57.496Z,98726.08
2019-05-28T20:18:03.285Z,98726.69
2019-05-28T20:21:09.036Z,98728.94
2019-05-28T20:24:14.821Z,98729.02
2019-05-28T20:27:20.529Z,98731.73
2019-05-28T20:30:26.312Z,98738.36
2019-05-28T20:33:32.040Z,98736.88
2019-05-28T20:36:39.274Z,98746.16
2019-05-28T20:39:45.397Z,98740.53
2019-05-28T20:42:51.227Z,98750.83
2019-05-28T20:45:58.751Z,98748.59
2019-05-28T20:49:08.872Z,98747.17
2019-05-28T20:52:15.601Z,98746.30
2019-05-28T20:55:22.821Z,98756.09
2019-05-28T20:58:40.294Z,98753.16
2019-05-28T21:01:39.426Z,98758.79
2019-05-28T21:04:46.255Z,98758.85
2019-05-28T21:07:53.171Z,98755.95
2019-05-28T21:10:59.715Z,98747.65
2019-05-28T21:14:05.466Z,98745.00
2019-05-28T21:17:11.850Z,98745.67
2019-05-28T21:20:18.552Z,98748.34
2019-05-28T21:23:25.795Z,98754.82
2019-05-28T21:26:31.588Z,98755.94
2019-05-28T21:29:41.204Z,98760.34
2019-05-28T21:32:50.710Z,98758.59
2019-05-28T21:35:57.343Z,98762.35
2019-05-28T21:39:03.839Z,98773.03
2019-05-28T21:42:09.689Z,98773.19
2019-05-28T21:45:16.654Z,98764.27
2019-05-28T21:48:22.451Z,98777.89
2019-05-28T21:51:28.421Z,98792.30
2019-05-28T21:54:34.481Z,98798.27
2019-05-28T21:57:40.338Z,98801.63
2019-05-28T22:00:55.935Z,98804.46
2019-05-28T22:04:01.890Z,98800.44
2019-05-28T22:07:07.897Z,98800.82
2019-05-28T22:10:14.583Z,98793.16
2019-05-28T22:13:22.806Z,98799.98
2019-05-28T22:16:29.699Z,98800.83
2019-05-28T22:19:35.382Z,98806.48
2019-05-28T22:22:42.057Z,98805.73
2019-05-28T22:25:47.795Z,98815.56
2019-05-28T22:28:53.487Z,98813.05
2019-05-28T22:32:00.831Z,98807.88
2019-05-28T22:35:06.881Z,98804.14
2019-05-28T22:38:12.610Z,98802.61
2019-05-28T22:41:18.407Z,98804.76
2019-05-28T22:44:24.221Z,98804.78
2019-05-28T22:47:30.053Z,98809.45
2019-05-28T22:50:35.702Z,98815.92
2019-05-28T22:53:41.383Z,98817.59
2019-05-28T22:56:48.523Z,98817.80
2019-05-28T22:59:54.236Z,98825.83
2019-05-28T23:03:00.855Z,98832.22
2019-05-28T23:06:07.927Z,98827.37
2019-05-28T23:09:13.614Z,98835.00
2019-05-28T23:12:19.260Z,98839.63
2019-05-28T23:15:25.143Z,98835.75
2019-05-28T23:18:30.813Z,98837.85
2019-05-28T23:21:36.538Z,98841.27
2019-05-28T23:24:42.267Z,98842.44
2019-05-28T23:27:47.998Z,98840.03
2019-05-28T23:30:53.841Z,98844.94
2019-05-28T23:33:59.564Z,98840.67
2019-05-28T23:37:06.345Z,98847.06
2019-05-28T23:40:13.483Z,98847.64
2019-05-28T23:43:19.212Z,98853.00
2019-05-28T23:46:24.945Z,98855.63
2019-05-28T23:49:30.735Z,98852.16
2019-05-28T23:52:36.541Z,98857.08
2019-05-28T23:55:43.005Z,98853.17
2019-05-28T23:58:48.743Z,98862.41
